createdAt,value
2023-08-04T00:02:47.757Z,9.15
2023-08-04T00:07:50.977Z,7.03
2023-08-04T00:12:54.169Z,9.77
2023-08-04T00:17:57.957Z,11.02
2023-08-04T00:23:01.060Z,12.52
2023-08-04T00:28:04.280Z,13.02
2023-08-04T00:33:07.444Z,12.70
2023-08-04T00:38:10.512Z,16.52
2023-08-04T00:43:13.844Z,11.50
2023-08-04T00:48:17.256Z,9.77
2023-08-04T00:53:20.651Z,9.48
2023-08-04T00:58:24.055Z,9.52
2023-08-04T01:03:28.580Z,13.32
2023-08-04T01:08:35.393Z,13.65
2023-08-04T01:13:41.005Z,6.63
2023-08-04T01:18:44.019Z,10.00
2023-08-04T01:23:47.186Z,10.18
2023-08-04T01:28:51.146Z,6.03
2023-08-04T01:33:54.343Z,13.57
2023-08-04T01:38:58.114Z,12.60
2023-08-04T01:44:01.254Z,14.60
2023-08-04T01:49:06.024Z,10.88
2023-08-04T01:54:09.086Z,9.43
2023-08-04T01:59:12.091Z,10.23
2023-08-04T02:04:15.327Z,8.88
2023-08-04T02:09:18.576Z,9.18
2023-08-04T02:14:22.879Z,8.90
2023-08-04T02:19:28.475Z,16.77
2023-08-04T02:24:31.574Z,8.30
2023-08-04T02:29:34.950Z,14.82
2023-08-04T02:34:38.183Z,7.78
2023-08-04T02:39:41.296Z,9.98
2023-08-04T02:44:44.413Z,11.95
2023-08-04T02:49:47.543Z,13.40
2023-08-04T02:54:54.969Z,9.77
2023-08-04T02:59:59.553Z,12.40
2023-08-04T03:05:03.137Z,11.38
2023-08-04T03:10:07.906Z,16.30
2023-08-04T03:15:11.234Z,14.68
2023-08-04T03:20:14.304Z,11.50
2023-08-04T03:25:17.415Z,9.60
2023-08-04T03:30:20.555Z,9.25
2023-08-04T03:35:23.599Z,12.70
2023-08-04T03:40:28.945Z,8.23
2023-08-04T03:45:32.017Z,12.13
2023-08-04T03:50:35.252Z,9.65
2023-08-04T03:55:38.339Z,11.10
2023-08-04T04:00:41.357Z,10.10
2023-08-04T04:05:44.470Z,11.18
2023-08-04T04:10:49.631Z,8.15
2023-08-04T04:15:52.671Z,7.00
2023-08-04T04:20:55.847Z,7.78
2023-08-04T04:25:58.918Z,9.25
2023-08-04T04:31:05.887Z,4.90
2023-08-04T04:36:09.015Z,6.85
2023-08-04T04:41:12.140Z,6.00
2023-08-04T04:46:15.152Z,5.97
2023-08-04T04:51:18.285Z,6.90
2023-08-04T04:56:21.275Z,4.53
2023-08-04T05:01:24.424Z,8.43
2023-08-04T05:06:30.443Z,6.22
2023-08-04T05:11:33.941Z,4.05
2023-08-04T05:16:37.021Z,4.03
2023-08-04T05:21:40.080Z,5.75
2023-08-04T05:26:43.431Z,6.18
2023-08-04T05:31:46.626Z,7.32
2023-08-04T05:36:50.008Z,7.43
2023-08-04T05:41:53.072Z,4.55
2023-08-04T05:46:57.143Z,6.43
2023-08-04T05:52:00.928Z,9.45
2023-08-04T05:57:04.196Z,8.15
2023-08-04T06:02:07.343Z,3.78
2023-08-04T06:07:10.381Z,3.97
2023-08-04T06:12:13.497Z,6.13
2023-08-04T06:17:16.691Z,5.53
2023-08-04T06:22:19.779Z,6.97
2023-08-04T06:27:23.155Z,4.03
2023-08-04T06:37:29.284Z,3.60
2023-08-04T06:42:32.358Z,3.60
2023-08-04T06:47:35.707Z,4.05
2023-08-04T06:52:39.243Z,3.67
2023-08-04T07:02:50.238Z,2.83
2023-08-04T07:07:56.079Z,9.82
2023-08-04T07:12:59.194Z,4.70
2023-08-04T07:18:02.316Z,8.00
2023-08-04T07:23:05.381Z,4.85
2023-08-04T07:28:08.506Z,7.15
2023-08-04T07:33:11.620Z,4.28
2023-08-04T07:38:14.895Z,3.92
2023-08-04T07:43:18.597Z,9.30
2023-08-04T07:48:22.935Z,5.30
2023-08-04T07:53:26.055Z,5.68
2023-08-04T07:58:29.192Z,7.45
2023-08-04T08:03:36.400Z,6.05
2023-08-04T08:08:39.494Z,5.72
2023-08-04T08:13:42.555Z,6.28
2023-08-04T08:18:45.636Z,5.65
2023-08-04T08:23:48.700Z,7.13
2023-08-04T08:28:51.779Z,5.07
2023-08-04T08:33:54.985Z,4.53
2023-08-04T08:38:58.098Z,4.75
2023-08-04T08:44:01.153Z,4.20
2023-08-04T08:49:05.666Z,4.60
2023-08-04T08:54:09.590Z,4.82
2023-08-04T08:59:12.947Z,5.60
2023-08-04T09:04:17.384Z,4.03
2023-08-04T09:09:20.455Z,4.97
2023-08-04T09:14:23.542Z,4.47
2023-08-04T09:19:34.290Z,4.28
2023-08-04T09:24:37.894Z,3.42
2023-08-04T09:29:57.754Z,5.43
2023-08-04T09:35:07.940Z,4.13
2023-08-04T09:40:21.809Z,4.03
2023-08-04T09:45:25.085Z,3.65
2023-08-04T09:50:28.511Z,3.70
2023-08-04T09:55:32.253Z,3.13
2023-08-04T10:05:38.756Z,4.28
2023-08-04T10:10:43.492Z,3.45
2023-08-04T10:15:47.464Z,2.33
2023-08-04T10:20:52.655Z,5.80
2023-08-04T10:26:00.613Z,4.00
2023-08-04T10:31:12.604Z,4.97
2023-08-04T10:36:16.404Z,6.13
2023-08-04T10:46:26.534Z,9.32
2023-08-04T10:51:29.853Z,5.35
2023-08-04T10:56:32.945Z,4.90
2023-08-04T11:01:36.211Z,4.10
2023-08-04T11:06:39.534Z,2.95
2023-08-04T11:11:42.886Z,2.45
2023-08-04T11:16:48.125Z,5.18
2023-08-04T11:21:52.071Z,4.38
2023-08-04T11:26:57.778Z,3.88
2023-08-04T11:32:00.964Z,3.63
2023-08-04T11:37:04.326Z,2.33
2023-08-04T11:42:14.575Z,2.47
2023-08-04T11:47:19.081Z,5.82
2023-08-04T11:52:24.509Z,7.82
2023-08-04T11:57:27.992Z,2.97
2023-08-04T12:02:31.321Z,6.43
2023-08-04T12:07:34.838Z,2.38
2023-08-04T12:12:43.390Z,3.35
2023-08-04T12:17:46.564Z,3.92
2023-08-04T12:22:49.778Z,3.28
2023-08-04T12:27:52.968Z,2.83
2023-08-04T12:32:56.075Z,2.80
2023-08-04T12:38:01.570Z,8.43
2023-08-04T12:43:04.917Z,3.38
2023-08-04T12:48:07.999Z,2.22
2023-08-04T12:53:15.610Z,4.40
2023-08-04T12:58:19.096Z,1.95
2023-08-04T13:03:22.282Z,3.28
2023-08-04T13:08:25.505Z,2.60
2023-08-04T13:13:28.768Z,2.38
2023-08-04T13:18:31.811Z,2.38
2023-08-04T13:23:35.042Z,3.75
2023-08-04T13:28:38.080Z,3.72
2023-08-04T13:33:41.165Z,1.73
2023-08-04T13:38:44.546Z,3.47
2023-08-04T13:43:48.425Z,2.15
2023-08-04T13:53:54.471Z,1.85
2023-08-04T13:58:57.582Z,3.08
2023-08-04T14:04:01.288Z,2.95
2023-08-04T14:09:04.653Z,2.28
2023-08-04T14:14:07.902Z,5.18
2023-08-04T14:19:11.067Z,3.90
2023-08-04T14:24:14.202Z,4.70
2023-08-04T14:29:18.916Z,5.15
2023-08-04T14:34:22.076Z,2.85
2023-08-04T14:39:25.252Z,4.13
2023-08-04T14:44:28.610Z,4.18
2023-08-04T14:49:31.666Z,2.35
2023-08-04T14:54:34.832Z,1.73
2023-08-04T14:59:38.030Z,3.30
2023-08-04T15:04:42.063Z,3.05
2023-08-04T15:09:45.187Z,2.92
2023-08-04T15:14:49.589Z,2.72
2023-08-04T15:19:52.604Z,7.07
2023-08-04T15:24:55.603Z,4.35
2023-08-04T15:29:58.636Z,2.30
2023-08-04T15:35:02.026Z,5.78
2023-08-04T15:40:07.533Z,3.60
2023-08-04T15:45:13.737Z,5.45
2023-08-04T15:50:16.977Z,6.53
2023-08-04T15:55:20.034Z,7.57
2023-08-04T16:00:23.098Z,11.90
2023-08-04T16:05:28.751Z,7.68
2023-08-04T16:10:32.799Z,4.68
2023-08-04T16:15:35.832Z,5.60
2023-08-04T16:20:39.115Z,5.47
2023-08-04T16:25:42.138Z,8.88
2023-08-04T16:30:45.246Z,10.32
2023-08-04T16:35:49.012Z,12.52
2023-08-04T16:40:57.330Z,10.48
2023-08-04T16:46:00.763Z,15.43
2023-08-04T16:51:04.227Z,6.72
2023-08-04T16:56:07.309Z,7.63
2023-08-04T17:01:13.312Z,16.33
2023-08-04T17:06:19.347Z,10.75
2023-08-04T17:11:23.146Z,10.35
2023-08-04T17:16:26.298Z,9.57
2023-08-04T17:21:31.657Z,9.05
2023-08-04T17:26:34.616Z,13.40
2023-08-04T17:31:37.985Z,13.48
2023-08-04T17:36:42.638Z,7.13
2023-08-04T17:41:45.616Z,13.57
2023-08-04T17:46:48.940Z,11.98
2023-08-04T17:51:55.017Z,10.70
2023-08-04T17:56:59.019Z,14.60
2023-08-04T18:02:02.029Z,15.20
2023-08-04T18:07:05.349Z,19.63
2023-08-04T18:12:08.824Z,21.55
2023-08-04T18:17:11.890Z,13.95
2023-08-04T18:22:17.312Z,18.85
2023-08-04T18:27:20.296Z,15.60
2023-08-04T18:32:23.341Z,12.43
2023-08-04T18:37:26.383Z,18.20
2023-08-04T18:42:29.589Z,17.95
2023-08-04T18:47:32.717Z,17.50
2023-08-04T18:52:36.284Z,19.23
2023-08-04T18:57:39.433Z,15.40
2023-08-04T19:02:42.624Z,18.92
2023-08-04T19:07:45.773Z,18.42
2023-08-04T19:12:48.907Z,18.55
2023-08-04T19:17:52.268Z,23.48
2023-08-04T19:22:55.381Z,23.10
2023-08-04T19:27:58.501Z,17.35
2023-08-04T19:33:01.586Z,22.27
2023-08-04T19:38:04.918Z,14.25
2023-08-04T19:43:08.787Z,17.83
2023-08-04T19:48:12.222Z,15.20
2023-08-04T19:53:15.294Z,13.77
2023-08-04T19:58:18.428Z,19.40
2023-08-04T20:03:21.771Z,11.48
2023-08-04T20:08:24.824Z,12.68
2023-08-04T20:13:28.200Z,7.82
2023-08-04T20:18:32.315Z,16.55
2023-08-04T20:23:35.995Z,9.80
2023-08-04T20:28:39.560Z,10.10
2023-08-04T20:33:42.653Z,7.93
2023-08-04T20:38:45.752Z,7.90
2023-08-04T20:43:48.819Z,7.45
2023-08-04T20:48:51.789Z,7.07
2023-08-04T20:53:54.899Z,10.15
2023-08-04T20:58:57.945Z,6.47
2023-08-04T21:04:00.973Z,8.73
2023-08-04T21:09:04.122Z,5.65
2023-08-04T21:14:07.200Z,11.80
2023-08-04T21:19:10.232Z,8.52
2023-08-04T21:24:13.416Z,5.70
2023-08-04T21:29:16.417Z,7.68
2023-08-04T21:34:22.484Z,10.60
2023-08-04T21:39:26.291Z,8.10
2023-08-04T21:44:29.971Z,5.95
2023-08-04T21:49:33.247Z,7.25
2023-08-04T21:54:45.320Z,7.28
2023-08-04T21:59:48.493Z,5.22
2023-08-04T22:04:51.526Z,10.95
2023-08-04T22:09:54.910Z,8.93
2023-08-04T22:14:59.702Z,8.30
2023-08-04T22:20:02.959Z,6.20
2023-08-04T22:25:06.271Z,8.73
2023-08-04T22:30:09.598Z,7.28
2023-08-04T22:35:12.666Z,5.10
2023-08-04T22:40:15.655Z,5.93
2023-08-04T22:45:18.788Z,5.05
2023-08-04T22:50:22.046Z,4.40
2023-08-04T22:55:25.193Z,9.27
2023-08-04T23:00:28.825Z,7.53
2023-08-04T23:05:35.163Z,8.20
2023-08-04T23:10:38.299Z,11.50
2023-08-04T23:15:41.327Z,4.65
2023-08-04T23:20:51.657Z,6.50
2023-08-04T23:25:54.896Z,10.30
2023-08-04T23:30:58.029Z,10.40
2023-08-04T23:36:01.207Z,5.43
2023-08-04T23:41:04.402Z,7.57
2023-08-04T23:46:07.588Z,6.97
2023-08-04T23:51:10.829Z,4.30
2023-08-04T23:56:13.982Z,7.03
